Time;durP1;ratioP1;P1;durP2;ratioP2;P2;SDS_P1;SDS_P2;PMS_P1;PMS_P2;Temp;Humidity;BMP_temperature;BMP_pressure;BME280_temperature;BME280_humidity;BME280_pressure;Samples;Min_cycle;Max_cycle;Signal;HPM_P1;HPM_P2
2022/09/01 00:02:14;;;;;;;2.88;1.35;;;14.70;99.90;;;;;;5072774;28;20595;-71
2022/09/01 00:04:44;;;;;;;2.08;1.55;;;14.90;99.90;;;;;;5072551;28;20048;-73
2022/09/01 00:07:11;;;;;;;2.90;1.55;;;14.90;99.90;;;;;;5071219;28;20140;-72
2022/09/01 00:09:37;;;;;;;4.07;1.35;;;14.80;99.90;;;;;;5072403;28;20052;-73
2022/09/01 00:12:06;;;;;;;2.55;1.63;;;14.40;99.90;;;;;;5071977;28;20047;-74
2022/09/01 00:14:34;;;;;;;3.58;1.38;;;14.60;99.90;;;;;;5071342;28;20396;-75
2022/09/01 00:17:03;;;;;;;3.08;1.42;;;14.60;99.90;;;;;;5072267;28;20048;-72
2022/09/01 00:19:29;;;;;;;3.60;1.35;;;14.60;99.90;;;;;;5072200;28;20052;-70
2022/09/01 00:21:55;;;;;;;2.20;1.60;;;14.70;99.90;;;;;;5070960;28;20055;-71
2022/09/01 00:24:22;;;;;;;5.13;1.65;;;14.50;99.90;;;;;;5072281;28;20040;-71
2022/09/01 00:26:47;;;;;;;3.45;2.22;;;14.10;99.90;;;;;;5071855;28;20129;-71
2022/09/01 00:29:14;;;;;;;1.90;1.40;;;14.50;99.90;;;;;;5070748;28;20045;-72
2022/09/01 00:31:40;;;;;;;4.55;1.40;;;14.70;99.90;;;;;;5071678;28;20461;-70
2022/09/01 00:34:06;;;;;;;3.95;1.55;;;14.40;99.90;;;;;;5071461;28;20055;-72
2022/09/01 00:36:32;;;;;;;;;;;14.40;99.90;;;;;;5072416;28;20045;-73
2022/09/01 00:38:58;;;;;;;3.00;1.40;;;14.30;99.90;;;;;;5072035;28;19931;-74
2022/09/01 00:41:25;;;;;;;;;;;14.10;99.90;;;;;;5072226;28;20552;-73
2022/09/01 00:44:04;;;;;;;3.47;1.60;;;14.20;99.90;;;;;;5071939;28;19971;-73
2022/09/01 00:46:34;;;;;;;3.40;1.67;;;14.50;99.90;;;;;;5071952;28;20044;-74
2022/09/01 00:49:05;;;;;;;4.10;1.63;;;13.90;99.90;;;;;;5071892;28;20055;-73
2022/09/01 00:51:33;;;;;;;2.97;1.50;;;14.30;99.90;;;;;;5071764;28;20044;-73
2022/09/01 00:54:00;;;;;;;3.15;1.58;;;13.80;99.90;;;;;;5071835;28;20045;-73
2022/09/01 00:56:27;;;;;;;1.90;1.55;;;14.20;99.90;;;;;;5071532;28;20052;-72
2022/09/01 00:58:53;;;;;;;4.05;1.50;;;14.00;99.90;;;;;;5071871;28;20044;-72
2022/09/01 01:01:19;;;;;;;3.83;2.08;;;14.00;99.90;;;;;;5070577;28;20040;-71
2022/09/01 01:03:45;;;;;;;2.92;1.50;;;14.10;99.90;;;;;;5071797;28;20125;-73
2022/09/01 01:06:14;;;;;;;2.20;1.80;;;14.20;99.90;;;;;;5071709;28;20056;-73
2022/09/01 01:08:56;;;;;;;2.17;1.52;;;13.90;99.90;;;;;;5070567;28;20531;-72
2022/09/01 01:11:24;;;;;;;3.08;1.42;;;14.00;99.90;;;;;;5070259;28;20067;-71
2022/09/01 01:13:57;;;;;;;3.55;1.60;;;14.20;99.90;;;;;;5071670;28;20079;-72
2022/09/01 01:16:26;;;;;;;3.10;1.38;;;14.00;99.90;;;;;;5071961;28;20052;-70
2022/09/01 01:18:52;;;;;;;3.65;1.50;;;13.90;99.90;;;;;;5071731;28;20055;-73
2022/09/01 01:24:25;;;;;;;2.80;1.60;;;13.70;99.90;;;;;;5071441;28;20075;-70
2022/09/01 01:26:51;;;;;;;5.28;1.52;;;13.70;99.90;;;;;;5071568;28;20040;-69
2022/09/01 01:29:18;;;;;;;1.90;1.60;;;14.10;99.90;;;;;;5071426;28;20090;-70
2022/09/01 01:31:48;;;;;;;2.83;1.40;;;14.30;99.90;;;;;;5071531;28;20102;-73
2022/09/01 01:34:16;;;;;;;1.70;1.30;;;14.10;99.90;;;;;;5071779;28;20048;-73
2022/09/01 01:36:42;;;;;;;2.35;1.50;;;14.30;99.90;;;;;;5070423;28;20114;-71
2022/09/01 01:39:14;;;;;;;1.50;1.38;;;14.20;99.90;;;;;;5071236;28;20114;-71
2022/09/01 01:41:43;;;;;;;1.65;1.30;;;14.10;99.90;;;;;;5071474;28;20076;-72
2022/09/01 01:44:11;;;;;;;2.10;1.50;;;14.10;99.90;;;;;;5072433;28;20405;-73
2022/09/01 01:46:44;;;;;;;3.53;1.50;;;15.10;99.90;;;;;;5075019;28;20059;-71
2022/09/01 01:49:19;;;;;;;1.80;1.30;;;14.40;99.90;;;;;;5075188;28;20484;-70
2022/09/01 01:51:48;;;;;;;2.92;1.30;;;12.50;99.90;;;;;;5075007;28;20118;-72
2022/09/01 01:54:18;;;;;;;1.20;1.10;;;13.80;99.90;;;;;;5074703;28;20049;-73
2022/09/01 01:56:44;;;;;;;1.55;1.30;;;13.90;99.90;;;;;;5073926;28;20080;-73
2022/09/01 01:59:13;;;;;;;4.75;1.40;;;14.10;99.90;;;;;;5073390;28;20129;-73
2022/09/01 02:01:41;;;;;;;2.25;1.35;;;14.30;99.90;;;;;;5073565;28;20041;-70
2022/09/01 02:04:09;;;;;;;1.42;1.20;;;14.10;99.90;;;;;;5074656;28;20182;-70
2022/09/01 02:06:36;;;;;;;2.45;1.35;;;15.30;99.90;;;;;;5073662;28;20044;-71
2022/09/01 02:09:02;;;;;;;1.90;1.35;;;14.10;99.90;;;;;;5073044;28;20225;-73
2022/09/01 02:11:32;;;;;;;1.33;1.20;;;14.30;99.90;;;;;;5074601;28;20044;-73
2022/09/01 02:13:59;;;;;;;2.40;1.38;;;14.10;99.90;;;;;;5074531;28;20040;-71
2022/09/01 02:16:28;;;;;;;2.95;1.40;;;13.90;99.90;;;;;;5074448;28;20049;-72
2022/09/01 02:18:54;;;;;;;1.48;1.38;;;14.10;99.90;;;;;;5073232;28;20079;-73
2022/09/01 02:21:22;;;;;;;1.45;1.30;;;14.20;99.90;;;;;;5074441;28;20047;-74
2022/09/01 02:23:59;;;;;;;2.58;1.50;;;14.30;99.90;;;;;;5073102;28;20057;-72
2022/09/01 02:26:30;;;;;;;;;;;14.00;99.90;;;;;;5074806;28;20056;-72
2022/09/01 02:29:00;;;;;;;1.95;1.38;;;14.20;99.90;;;;;;5073924;28;19928;-70
2022/09/01 02:31:26;;;;;;;2.25;1.33;;;14.20;99.90;;;;;;5074139;28;20045;-71
2022/09/01 02:33:53;;;;;;;;;;;14.40;99.90;;;;;;5074358;28;20504;-73
2022/09/01 02:36:19;;;;;;;1.98;1.30;;;14.10;99.90;;;;;;5073667;28;20416;-69
2022/09/01 02:38:47;;;;;;;2.03;1.42;;;14.30;99.90;;;;;;5074097;28;20074;-69
2022/09/01 02:41:14;;;;;;;3.03;1.92;;;13.90;99.90;;;;;;5074425;28;20389;-72
2022/09/01 02:43:42;;;;;;;2.20;1.67;;;14.10;99.90;;;;;;5074000;28;20047;-73
2022/09/01 02:46:08;;;;;;;2.45;1.48;;;14.50;99.90;;;;;;5074024;28;20116;-70
2022/09/01 02:48:37;;;;;;;3.22;1.63;;;14.30;99.90;;;;;;5073978;28;20052;-72
2022/09/01 02:51:07;;;;;;;2.92;1.65;;;14.30;99.90;;;;;;5073628;28;20044;-71
2022/09/01 02:53:34;;;;;;;3.38;1.67;;;14.20;99.90;;;;;;5073926;28;20053;-73
2022/09/01 02:56:01;;;;;;;1.85;1.67;;;14.20;99.90;;;;;;5073286;28;20132;-70
2022/09/01 02:58:29;;;;;;;2.70;1.90;;;14.40;99.90;;;;;;5073737;28;20044;-72
2022/09/01 03:00:56;;;;;;;2.08;1.60;;;14.20;99.90;;;;;;5073692;28;20051;-71
2022/09/01 03:03:23;;;;;;;9.25;1.83;;;13.80;99.90;;;;;;5073614;28;20157;-70
2022/09/01 03:05:55;;;;;;;2.95;1.60;;;14.00;99.90;;;;;;5073353;28;20044;-72
2022/09/01 03:08:23;;;;;;;1.58;1.45;;;13.60;99.90;;;;;;5073658;28;20109;-73
2022/09/01 03:10:50;;;;;;;5.32;1.80;;;13.70;99.90;;;;;;5073419;28;20052;-73
2022/09/01 03:13:20;;;;;;;4.25;1.73;;;13.90;99.90;;;;;;5073429;28;20044;-73
2022/09/01 03:15:46;;;;;;;2.35;1.70;;;13.80;99.90;;;;;;5073427;28;20041;-73
2022/09/01 03:18:13;;;;;;;2.00;1.55;;;14.00;99.90;;;;;;5073360;28;20484;-72
2022/09/01 03:20:45;;;;;;;2.60;1.70;;;13.90;99.90;;;;;;5072740;28;20477;-73
2022/09/01 03:23:13;;;;;;;2.92;1.58;;;14.00;99.90;;;;;;5073419;28;20135;-71
2022/09/01 03:25:41;;;;;;;2.50;1.50;;;14.00;99.90;;;;;;5073380;28;20114;-73
2022/09/01 03:28:08;;;;;;;3.30;1.65;;;14.00;99.90;;;;;;5073512;28;20378;-71
2022/09/01 03:30:38;;;;;;;2.30;1.75;;;14.30;99.90;;;;;;5073224;28;20057;-72
2022/09/01 03:33:06;;;;;;;4.43;1.90;;;14.20;99.90;;;;;;5073231;28;20056;-73
2022/09/01 03:35:32;;;;;;;4.78;1.70;;;14.00;99.90;;;;;;5072740;28;20048;-72
2022/09/01 03:37:59;;;;;;;3.78;1.90;;;14.10;99.90;;;;;;5073033;28;20470;-73
2022/09/01 03:40:31;;;;;;;3.88;1.60;;;14.20;99.90;;;;;;5072994;28;20041;-73
2022/09/01 03:43:00;;;;;;;1.90;1.50;;;14.10;99.90;;;;;;5072903;28;20060;-73
2022/09/01 03:45:28;;;;;;;3.83;1.75;;;14.10;99.90;;;;;;5072881;28;20040;-72
2022/09/01 03:47:54;;;;;;;4.97;1.67;;;14.70;99.90;;;;;;5072782;28;20408;-73
2022/09/01 03:50:22;;;;;;;2.15;1.95;;;14.30;99.90;;;;;;5071121;28;20040;-73
2022/09/01 03:52:53;;;;;;;3.65;1.80;;;14.20;99.90;;;;;;5072672;28;20057;-74
2022/09/01 03:55:26;;;;;;;2.83;1.90;;;14.10;99.90;;;;;;5072656;28;20109;-73
2022/09/01 03:57:59;;;;;;;3.70;1.90;;;14.10;99.90;;;;;;5072657;28;20045;-73
2022/09/01 04:00:28;;;;;;;5.95;1.80;;;13.80;99.90;;;;;;5072626;28;20049;-73
2022/09/01 04:02:57;;;;;;;2.80;1.80;;;14.10;99.90;;;;;;5072519;28;20052;-74
2022/09/01 04:05:27;;;;;;;5.32;2.10;;;14.10;99.90;;;;;;5071185;28;20044;-73
2022/09/01 04:07:57;;;;;;;4.43;2.10;;;14.80;99.90;;;;;;5071693;28;20063;-70
2022/09/01 04:10:23;;;;;;;3.03;2.08;;;14.10;99.90;;;;;;5072431;28;20040;-73
2022/09/01 04:12:49;;;;;;;1.80;1.70;;;14.00;99.90;;;;;;5072356;28;20055;-72
2022/09/01 04:15:17;;;;;;;3.38;1.98;;;14.40;99.90;;;;;;5072344;28;20056;-71
2022/09/01 04:20:28;;;;;;;4.15;1.83;;;14.00;99.90;;;;;;5072358;28;20136;-72
2022/09/01 04:22:54;;;;;;;4.85;2.05;;;13.70;99.90;;;;;;5072474;28;20131;-70
2022/09/01 04:25:24;;;;;;;;;;;13.80;99.90;;;;;;5072598;28;20066;-69
2022/09/01 04:27:54;;;;;;;3.85;2.30;;;13.70;99.90;;;;;;5071964;28;19926;-72
2022/09/01 04:30:28;;;;;;;6.38;1.80;;;14.00;99.90;;;;;;5070372;28;20059;-72
2022/09/01 04:32:54;;;;;;;4.03;2.10;;;13.80;99.90;;;;;;5071902;28;20052;-73
2022/09/01 04:35:31;;;;;;;2.80;1.90;;;14.20;99.90;;;;;;5072097;28;20048;-73
2022/09/01 04:37:58;;;;;;;2.67;2.05;;;13.60;99.90;;;;;;5072148;28;20463;-73
2022/09/01 04:40:25;;;;;;;2.10;1.90;;;13.50;99.90;;;;;;5072070;28;20047;-71
2022/09/01 04:42:51;;;;;;;4.13;1.90;;;13.60;99.90;;;;;;5072044;28;20076;-74
2022/09/01 04:45:23;;;;;;;3.13;2.00;;;13.60;99.90;;;;;;5072003;28;20444;-74
2022/09/01 04:47:51;;;;;;;2.63;2.00;;;13.70;99.90;;;;;;5071752;28;20088;-74
2022/09/01 04:50:16;;;;;;;3.08;2.38;;;13.60;99.90;;;;;;5071768;28;20051;-73
2022/09/01 04:52:44;;;;;;;3.10;2.25;;;13.50;99.90;;;;;;5071951;28;20131;-72
2022/09/01 04:55:18;;;;;;;3.88;2.40;;;13.30;99.90;;;;;;5071881;28;20045;-74
2022/09/01 04:57:46;;;;;;;3.75;2.13;;;12.90;99.90;;;;;;5071942;28;20048;-72
2022/09/01 05:00:21;;;;;;;2.80;2.30;;;13.80;99.90;;;;;;5071815;28;20052;-73
2022/09/01 05:02:52;;;;;;;4.13;2.17;;;13.60;99.90;;;;;;5071629;28;20052;-74
2022/09/01 05:05:19;;;;;;;4.93;2.40;;;13.50;99.90;;;;;;5071874;28;20040;-74
2022/09/01 05:07:45;;;;;;;4.15;2.35;;;13.60;99.90;;;;;;5071799;28;20111;-74
2022/09/01 05:10:11;;;;;;;;;;;13.50;99.90;;;;;;5072073;28;20045;-72
2022/09/01 05:12:37;;;;;;;2.95;2.40;;;13.50;99.90;;;;;;5071788;28;19931;-73
2022/09/01 05:15:08;;;;;;;3.22;2.33;;;13.30;99.90;;;;;;5053736;28;20068;-72
2022/09/01 05:17:34;;;;;;;3.03;2.42;;;13.30;99.90;;;;;;5071606;28;20051;-72
2022/09/01 05:20:00;;;;;;;3.75;2.60;;;13.20;99.90;;;;;;5073503;28;20482;-71
2022/09/01 05:22:26;;;;;;;4.55;2.70;;;13.30;99.90;;;;;;5075811;28;20123;-73
2022/09/01 05:24:52;;;;;;;2.70;2.20;;;13.30;99.90;;;;;;5075333;28;20040;-70
2022/09/01 05:27:17;;;;;;;4.03;2.60;;;13.40;99.90;;;;;;5074350;28;20048;-73
2022/09/01 05:29:45;;;;;;;3.10;2.47;;;13.50;99.90;;;;;;5075413;28;20483;-73
2022/09/01 05:32:11;;;;;;;9.60;3.08;;;13.80;99.90;;;;;;5075062;28;20044;-74
2022/09/01 05:34:38;;;;;;;3.92;2.70;;;13.40;99.90;;;;;;5075382;28;20087;-74
2022/09/01 05:37:07;;;;;;;4.13;2.85;;;13.40;99.90;;;;;;5075312;28;20054;-74
2022/09/01 05:39:34;;;;;;;3.35;2.47;;;14.80;99.90;;;;;;5075263;28;20040;-73
2022/09/01 05:42:00;;;;;;;4.55;2.70;;;13.20;99.90;;;;;;5075278;28;20076;-73
2022/09/01 05:44:26;;;;;;;;;;;13.70;99.90;;;;;;5075566;28;20051;-73
2022/09/01 05:46:52;;;;;;;3.25;2.45;;;14.40;99.90;;;;;;5074759;28;19921;-71
2022/09/01 05:49:18;;;;;;;;;;;13.70;99.90;;;;;;5075539;28;20079;-74
2022/09/01 05:51:50;;;;;;;6.43;2.92;;;13.70;99.90;;;;;;5074969;28;19990;-74
2022/09/01 05:54:24;;;;;;;3.03;2.72;;;13.80;99.90;;;;;;5075254;28;20438;-73
2022/09/01 05:56:49;;;;;;;3.08;2.78;;;14.50;99.90;;;;;;5075012;28;20044;-72
2022/09/01 05:59:15;;;;;;;4.60;2.78;;;14.00;99.90;;;;;;5073693;28;20074;-73
2022/09/01 06:01:41;;;;;;;3.15;2.58;;;14.00;99.90;;;;;;5074988;28;20774;-73
2022/09/01 06:04:09;;;;;;;2.53;2.33;;;13.80;99.90;;;;;;5074891;28;20052;-74
2022/09/01 06:06:45;;;;;;;3.65;2.67;;;14.20;99.90;;;;;;5074770;28;20044;-73
2022/09/01 06:09:12;;;;;;;6.05;2.92;;;14.20;99.90;;;;;;5074794;28;20102;-74
2022/09/01 06:11:39;;;;;;;3.67;2.85;;;14.30;99.90;;;;;;5074915;28;20484;-71
2022/09/01 06:14:09;;;;;;;2.80;2.47;;;14.30;99.90;;;;;;5073084;28;20198;-73
2022/09/01 06:16:36;;;;;;;4.43;2.47;;;14.80;99.90;;;;;;5074641;28;20048;-75
2022/09/01 06:19:02;;;;;;;4.93;2.30;;;14.90;99.90;;;;;;5074579;28;20048;-73
2022/09/01 06:21:28;;;;;;;4.32;2.72;;;15.00;99.90;;;;;;5074535;28;20055;-73
2022/09/01 06:23:57;;;;;;;3.30;2.42;;;15.00;99.90;;;;;;5074459;28;20040;-74
2022/09/01 06:26:26;;;;;;;6.80;2.60;;;15.50;99.90;;;;;;5074429;28;20051;-74
2022/09/01 06:28:57;;;;;;;2.65;2.17;;;15.00;99.90;;;;;;5073902;28;20044;-73
2022/09/01 06:31:32;;;;;;;4.05;2.60;;;15.30;99.90;;;;;;5073342;28;20049;-73
2022/09/01 06:34:00;;;;;;;6.70;2.53;;;15.30;99.90;;;;;;5073334;28;20045;-74
2022/09/01 06:36:26;;;;;;;2.38;2.17;;;15.50;99.90;;;;;;5073201;28;20128;-73
2022/09/01 06:38:53;;;;;;;2.80;2.00;;;15.20;99.90;;;;;;5074174;28;20119;-72
2022/09/01 06:41:22;;;;;;;4.70;2.28;;;15.80;99.90;;;;;;5074192;28;20369;-74
2022/09/01 06:43:52;;;;;;;3.05;2.20;;;15.60;99.90;;;;;;5073864;28;20045;-73
2022/09/01 06:46:19;;;;;;;8.65;2.20;;;15.40;99.90;;;;;;5074122;28;20439;-72
2022/09/01 06:48:46;;;;;;;3.47;1.90;;;15.70;99.90;;;;;;5074010;28;20059;-73
2022/09/01 06:51:19;;;;;;;3.33;2.08;;;15.90;99.90;;;;;;5073981;28;20051;-73
2022/09/01 06:53:55;;;;;;;4.22;1.98;;;15.90;99.90;;;;;;5073935;28;20125;-74
2022/09/01 06:56:28;;;;;;;2.75;1.77;;;15.80;99.90;;;;;;5074040;28;20049;-74
2022/09/01 06:58:55;;;;;;;3.28;1.92;;;16.00;99.90;;;;;;5073712;28;20121;-69
2022/09/01 07:01:21;;;;;;;;;;;16.40;99.90;;;;;;5074518;28;20116;-75
2022/09/01 07:03:49;;;;;;;3.25;2.00;;;16.50;99.90;;;;;;5073747;28;20315;-72
2022/09/01 07:06:17;;;;;;;2.40;1.80;;;16.20;99.90;;;;;;5073695;28;20058;-74
2022/09/01 07:08:48;;;;;;;2.00;1.70;;;16.10;99.90;;;;;;5073705;28;20036;-72
2022/09/01 07:11:27;;;;;;;4.50;2.03;;;16.80;99.90;;;;;;5073878;28;20389;-73
2022/09/01 07:13:56;;;;;;;5.57;1.83;;;16.50;99.90;;;;;;5073558;28;20040;-73
2022/09/01 07:16:24;;;;;;;2.55;1.70;;;16.60;99.90;;;;;;5073516;28;20048;-73
2022/09/01 07:18:50;;;;;;;4.50;1.80;;;17.20;99.90;;;;;;5073424;28;20086;-68
2022/09/01 07:21:17;;;;;;;3.40;1.75;;;16.60;99.90;;;;;;5073304;28;20056;-71
2022/09/01 07:23:44;;;;;;;4.30;1.73;;;17.00;99.90;;;;;;5073410;28;20117;-71
2022/09/01 07:26:13;;;;;;;2.65;1.40;;;17.00;99.90;;;;;;5073281;28;20472;-73
2022/09/01 07:28:39;;;;;;;4.97;1.88;;;17.10;99.90;;;;;;5072541;28;20105;-71
2022/09/01 07:31:07;;;;;;;;;;;17.20;99.90;;;;;;5071915;28;20049;-72
2022/09/01 07:33:33;;;;;;;8.80;1.58;;;17.40;99.90;;;;;;5073147;28;19920;-72
2022/09/01 07:35:59;;;;;;;4.72;1.40;;;17.40;99.90;;;;;;5072744;28;20473;-72
2022/09/01 07:38:25;;;;;;;;;;;17.50;99.90;;;;;;5073427;28;20059;-69
2022/09/01 07:40:54;;;;;;;5.35;1.70;;;17.80;99.90;;;;;;5072720;28;19925;-74
2022/09/01 07:43:27;;;;;;;2.75;1.70;;;17.80;99.90;;;;;;5072793;28;20051;-69
2022/09/01 07:45:56;;;;;;;3.05;1.70;;;18.00;99.90;;;;;;5072919;28;20051;-71
2022/09/01 07:48:24;;;;;;;5.35;1.67;;;17.70;99.90;;;;;;5072860;28;20050;-71
2022/09/01 07:50:52;;;;;;;5.07;1.80;;;17.70;99.90;;;;;;5072675;28;20072;-71
2022/09/01 07:53:30;;;;;;;4.05;1.50;;;18.10;99.90;;;;;;5072770;28;20064;-73
2022/09/01 07:55:58;;;;;;;1.65;1.45;;;17.80;99.90;;;;;;5072545;28;20040;-70
2022/09/01 07:58:26;;;;;;;5.00;1.55;;;18.00;99.90;;;;;;5072666;28;20471;-71
2022/09/01 08:00:54;;;;;;;4.63;1.70;;;18.40;99.90;;;;;;5072624;28;20040;-70
2022/09/01 08:03:24;;;;;;;1.98;1.40;;;18.60;99.90;;;;;;5071327;28;20052;-72
2022/09/01 08:05:56;;;;;;;1.60;1.48;;;18.30;99.90;;;;;;5072549;28;20131;-71
2022/09/01 08:08:22;;;;;;;3.42;1.52;;;18.70;99.90;;;;;;5072541;28;20054;-70
2022/09/01 08:10:48;;;;;;;7.88;1.60;;;18.70;99.90;;;;;;5071789;28;20485;-70
2022/09/01 08:13:15;;;;;;;2.58;1.65;;;18.80;99.90;;;;;;5072482;28;20052;-70
2022/09/01 08:15:41;;;;;;;2.08;1.52;;;18.40;99.90;;;;;;5072327;28;20080;-69
2022/09/01 08:18:08;;;;;;;5.78;1.77;;;18.70;99.90;;;;;;5072609;28;20059;-70
2022/09/01 08:20:38;;;;;;;4.97;1.23;;;18.70;99.90;;;;;;5071227;28;20044;-73
2022/09/01 08:23:05;;;;;;;3.45;1.27;;;19.30;99.90;;;;;;5072374;28;20094;-71
2022/09/01 08:25:34;;;;;;;3.38;1.23;;;19.20;99.90;;;;;;5072033;28;20060;-72
2022/09/01 08:28:01;;;;;;;1.73;1.23;;;19.20;99.90;;;;;;5070857;28;20579;-69
2022/09/01 08:30:27;;;;;;;4.40;1.77;;;19.20;99.90;;;;;;5072094;28;20496;-68
2022/09/01 08:32:53;;;;;;;1.40;1.10;;;18.90;99.90;;;;;;5071834;28;20488;-72
2022/09/01 08:35:18;;;;;;;2.75;1.20;;;18.70;99.90;;;;;;5072146;28;20062;-72
2022/09/01 08:37:44;;;;;;;1.67;1.40;;;18.90;99.90;;;;;;5070896;28;20405;-71
2022/09/01 08:40:17;;;;;;;2.88;1.52;;;18.50;99.90;;;;;;5071796;28;20040;-70
2022/09/01 08:42:52;;;;;;;3.63;1.40;;;18.60;99.90;;;;;;5072033;28;20049;-69
2022/09/01 08:45:29;;;;;;;1.40;1.20;;;18.20;99.90;;;;;;5072029;28;20123;-73
2022/09/01 08:47:58;;;;;;;6.82;1.70;;;18.60;99.90;;;;;;5072026;28;20052;-70
2022/09/01 08:50:24;;;;;;;4.75;1.33;;;18.60;99.90;;;;;;5071933;28;20044;-70
2022/09/01 08:53:10;;;;;;;2.58;1.27;;;18.80;99.90;;;;;;5072028;28;20361;-70
2022/09/01 08:55:44;;;;;;;3.70;1.30;;;18.80;99.90;;;;;;5071422;28;20048;-71
2022/09/01 08:58:14;;;;;;;6.88;1.50;;;19.10;99.90;;;;;;5071942;28;20090;-72
2022/09/01 09:00:46;;;;;;;3.63;1.40;;;19.40;99.90;;;;;;5072090;28;20048;-72
2022/09/01 09:03:35;;;;;;;1.52;1.13;;;19.30;99.90;;;;;;5072131;28;20396;-74
2022/09/01 09:06:06;;;;;;;5.10;1.40;;;19.80;99.90;;;;;;5068282;28;20109;-72
2022/09/01 09:08:43;;;;;;;4.57;1.30;;;19.60;99.90;;;;;;5071541;28;20135;-73
2022/09/01 09:11:15;;;;;;;5.53;1.40;;;20.00;99.90;;;;;;5071728;28;20044;-71
2022/09/01 09:14:04;;;;;;;2.95;1.52;;;19.90;99.90;;;;;;5071697;28;20538;-69
2022/09/01 09:16:47;;;;;;;2.33;1.10;;;20.00;99.90;;;;;;5071860;28;20083;-71
2022/09/01 09:19:18;;;;;;;2.53;1.20;;;20.30;99.90;;;;;;5070508;28;20052;-72
2022/09/01 09:21:47;;;;;;;2.80;1.67;;;20.80;99.90;;;;;;5070192;28;20528;-69
2022/09/01 09:24:51;;;;;;;3.03;1.10;;;20.30;99.90;;;;;;5071081;28;20427;-71
2022/09/01 09:27:21;;;;;;;1.35;1.20;;;20.60;99.90;;;;;;5071661;28;20048;-72
2022/09/01 09:29:52;;;;;;;2.83;1.02;;;20.80;99.90;;;;;;5071390;28;20092;-69
2022/09/01 09:32:20;;;;;;;3.65;1.23;;;21.00;99.90;;;;;;5071580;28;20428;-71
2022/09/01 09:34:46;;;;;;;2.50;1.00;;;21.40;99.90;;;;;;5071538;28;20044;-70
2022/09/01 09:37:22;;;;;;;3.47;1.17;;;21.20;99.90;;;;;;5071229;28;20127;-69
2022/09/01 09:40:13;;;;;;;1.73;1.10;;;21.60;99.90;;;;;;5071525;28;20106;-74
2022/09/01 09:42:57;;;;;;;2.92;1.17;;;21.40;99.90;;;;;;5071500;28;20056;-71
2022/09/01 09:45:38;;;;;;;1.92;1.10;;;21.40;99.90;;;;;;5071417;28;20052;-68
2022/09/01 09:48:28;;;;;;;1.40;1.15;;;21.40;99.90;;;;;;5071451;28;20044;-68
2022/09/01 09:50:53;;;;;;;3.15;1.10;;;21.20;99.90;;;;;;5069858;28;20485;-70
2022/09/01 09:53:27;;;;;;;1.60;0.98;;;21.10;99.90;;;;;;5070760;28;20048;-71
2022/09/01 09:56:16;;;;;;;2.25;1.00;;;21.70;99.90;;;;;;5071313;28;20055;-70
2022/09/01 09:58:45;;;;;;;2.15;0.93;;;21.60;99.90;;;;;;5071381;28;20431;-70
2022/09/01 10:01:15;;;;;;;3.17;1.20;;;22.20;99.90;;;;;;5071320;28;20084;-70
2022/09/01 10:03:52;;;;;;;5.13;1.30;;;21.90;99.90;;;;;;5071308;28;20052;-68
2022/09/01 10:06:33;;;;;;;2.00;1.17;;;22.30;99.90;;;;;;5072276;28;20124;-71
2022/09/01 10:09:05;;;;;;;1.75;1.15;;;22.00;99.90;;;;;;5074465;28;20550;-67
2022/09/01 10:11:43;;;;;;;2.75;1.10;;;22.10;99.90;;;;;;5074709;28;20050;-71
2022/09/01 10:14:19;;;;;;;4.43;1.10;;;22.70;99.90;;;;;;5074756;28;20099;-69
2022/09/01 10:16:51;;;;;;;3.30;1.25;;;22.50;99.90;;;;;;5074678;28;20048;-68
2022/09/01 10:19:18;;;;;;;2.95;1.17;;;22.50;99.90;;;;;;5074625;28;20045;-70
2022/09/01 10:21:45;;;;;;;3.15;0.90;;;22.60;99.90;;;;;;5074333;28;20124;-71
2022/09/01 10:24:32;;;;;;;0.70;0.70;;;22.70;99.90;;;;;;5073482;28;20135;-71
2022/09/01 10:27:09;;;;;;;4.50;1.10;;;22.80;99.90;;;;;;5074424;28;20063;-72
2022/09/01 10:29:50;;;;;;;5.38;1.33;;;22.60;99.90;;;;;;5074416;28;20052;-69
2022/09/01 10:32:20;;;;;;;4.60;1.60;;;22.50;99.90;;;;;;5074304;28;20051;-71
2022/09/01 10:34:47;;;;;;;3.13;1.30;;;22.70;99.90;;;;;;5074397;28;20041;-70
2022/09/01 10:37:14;;;;;;;2.95;0.90;;;22.70;99.90;;;;;;5072731;28;20405;-69
2022/09/01 10:40:11;;;;;;;2.22;1.10;;;22.40;99.90;;;;;;5074239;28;20048;-67
2022/09/01 10:42:42;;;;;;;4.80;1.00;;;22.40;99.90;;;;;;5064106;28;20067;-70
2022/09/01 10:45:30;;;;;;;2.45;1.10;;;22.30;99.90;;;;;;5074175;28;20059;-72
2022/09/01 10:48:18;;;;;;;2.83;1.15;;;22.00;99.90;;;;;;5072902;28;20041;-69
2022/09/01 10:50:45;;;;;;;2.40;1.00;;;22.10;99.90;;;;;;5073364;28;20049;-71
2022/09/01 10:53:34;;;;;;;1.90;1.45;;;22.30;99.90;;;;;;5074090;28;20053;-69
2022/09/01 10:56:24;;;;;;;2.85;0.90;;;22.40;99.90;;;;;;5072700;28;20504;-71
2022/09/01 10:59:04;;;;;;;2.35;1.27;;;22.40;99.90;;;;;;5074054;28;20174;-70
2022/09/01 11:02:07;;;;;;;1.17;0.90;;;22.00;99.90;;;;;;5073931;28;20079;-69
2022/09/01 11:04:39;;;;;;;1.67;1.10;;;22.30;99.90;;;;;;5073511;28;20045;-70
2022/09/01 11:07:17;;;;;;;1.02;0.80;;;21.90;99.90;;;;;;5073739;28;20416;-69
2022/09/01 11:10:07;;;;;;;1.38;1.10;;;22.10;99.90;;;;;;5073661;28;20131;-67
2022/09/01 11:12:47;;;;;;;1.38;0.85;;;22.00;99.90;;;;;;5071735;28;20052;-68
2022/09/01 11:15:12;;;;;;;1.77;0.88;;;21.80;98.70;;;;;;5073492;28;20091;-67
2022/09/01 11:17:58;;;;;;;2.63;0.95;;;22.30;99.90;;;;;;5072969;28;20080;-69
2022/09/01 11:20:30;;;;;;;1.90;1.00;;;22.60;99.60;;;;;;5071798;28;20127;-69
2022/09/01 11:23:04;;;;;;;2.22;0.85;;;22.60;99.70;;;;;;5073400;28;20040;-70
2022/09/01 11:25:48;;;;;;;0.90;0.77;;;22.80;99.00;;;;;;5073365;28;20225;-70
2022/09/01 11:28:14;;;;;;;2.85;1.05;;;23.20;98.70;;;;;;5073317;28;20114;-69
2022/09/01 11:30:53;;;;;;;2.47;0.95;;;23.80;99.90;;;;;;5073194;28;20056;-68
2022/09/01 11:33:39;;;;;;;0.95;0.57;;;24.00;99.90;;;;;;5072942;28;20049;-67
2022/09/01 11:36:12;;;;;;;2.35;0.90;;;24.30;97.60;;;;;;5073169;28;20113;-70
2022/09/01 11:38:51;;;;;;;3.22;1.00;;;24.10;99.90;;;;;;5073091;28;20044;-68
2022/09/01 11:41:27;;;;;;;4.70;1.02;;;24.10;98.60;;;;;;5073055;28;20075;-70
2022/09/01 11:43:56;;;;;;;2.15;1.08;;;24.30;97.80;;;;;;5072964;28;20040;-68
2022/09/01 11:46:31;;;;;;;3.22;0.98;;;23.90;98.20;;;;;;5072893;28;20106;-68
2022/09/01 11:49:02;;;;;;;2.15;1.10;;;23.80;97.70;;;;;;5071531;28;20052;-69
2022/09/01 11:51:55;;;;;;;3.42;1.17;;;23.10;99.90;;;;;;5072650;28;20044;-68
2022/09/01 11:54:23;;;;;;;2.63;1.00;;;22.90;99.90;;;;;;5072728;28;20040;-70
2022/09/01 11:56:48;;;;;;;5.30;1.00;;;22.50;99.90;;;;;;5072707;28;20443;-68
2022/09/01 11:59:28;;;;;;;1.92;0.90;;;22.50;99.90;;;;;;5072660;28;20274;-71
2022/09/01 12:01:57;;;;;;;3.08;1.40;;;22.50;99.90;;;;;;5072501;28;20041;-71
2022/09/01 12:04:32;;;;;;;3.22;1.42;;;22.50;99.90;;;;;;5072235;28;20511;-68
2022/09/01 12:07:05;;;;;;;2.45;0.90;;;22.40;99.90;;;;;;5072637;28;20048;-68
2022/09/01 12:09:46;;;;;;;3.75;1.00;;;23.10;99.90;;;;;;5072548;28;20400;-69
2022/09/01 12:12:30;;;;;;;3.10;1.10;;;23.60;99.90;;;;;;5072331;28;20036;-69
2022/09/01 12:15:17;;;;;;;2.63;1.00;;;23.40;99.90;;;;;;5072425;28;20114;-68
2022/09/01 12:17:43;;;;;;;3.05;0.90;;;23.70;99.90;;;;;;5071871;28;20503;-69
2022/09/01 12:20:18;;;;;;;3.28;0.90;;;23.50;99.90;;;;;;5072372;28;20052;-68
2022/09/01 12:22:44;;;;;;;2.15;1.00;;;23.90;99.90;;;;;;5072386;28;20052;-67
2022/09/01 12:25:21;;;;;;;1.50;1.02;;;23.60;99.90;;;;;;5072292;28;20422;-67
2022/09/01 12:27:47;;;;;;;2.80;1.10;;;23.20;99.90;;;;;;5071179;28;20051;-67
2022/09/01 12:30:13;;;;;;;3.20;1.27;;;23.10;99.90;;;;;;5071483;28;20488;-68
2022/09/01 12:32:39;;;;;;;2.65;0.98;;;22.80;99.90;;;;;;5071905;28;20044;-69
2022/09/01 12:35:19;;;;;;;2.80;1.02;;;22.80;99.90;;;;;;5070819;28;20488;-67
2022/09/01 12:37:45;;;;;;;1.42;1.08;;;22.60;99.90;;;;;;5072231;28;20090;-70
2022/09/01 12:40:31;;;;;;;1.90;1.10;;;21.70;99.90;;;;;;5072100;28;20125;-68
2022/09/01 12:42:56;;;;;;;1.10;0.90;;;22.10;99.90;;;;;;5072108;28;20414;-67
2022/09/01 12:45:43;;;;;;;2.47;1.00;;;22.20;99.90;;;;;;5071824;28;20044;-66
2022/09/01 12:48:34;;;;;;;2.22;0.93;;;22.10;99.90;;;;;;5072303;28;20056;-68
2022/09/01 12:51:19;;;;;;;3.47;1.15;;;22.70;99.90;;;;;;5072159;28;20033;-66
2022/09/01 12:54:11;;;;;;;3.73;1.17;;;22.30;99.90;;;;;;5072072;28;20060;-72
2022/09/01 12:56:38;;;;;;;4.55;0.90;;;22.00;99.90;;;;;;5070644;28;20056;-68
2022/09/01 12:59:20;;;;;;;1.50;1.10;;;22.20;99.90;;;;;;5071894;28;20056;-69
2022/09/01 13:01:46;;;;;;;2.67;1.42;;;22.10;99.90;;;;;;5071592;28;20045;-68
2022/09/01 13:04:32;;;;;;;3.70;1.00;;;22.10;99.90;;;;;;5071798;28;20048;-68
2022/09/01 13:07:04;;;;;;;1.05;0.90;;;21.80;99.90;;;;;;5071827;28;20056;-67
2022/09/01 13:09:30;;;;;;;1.50;1.10;;;21.90;99.90;;;;;;5071793;28;20087;-70
2022/09/01 13:12:31;;;;;;;2.65;1.00;;;22.20;99.90;;;;;;5071357;28;20088;-69
2022/09/01 13:14:57;;;;;;;3.38;1.33;;;22.30;99.90;;;;;;5048770;28;20508;-69
2022/09/01 13:17:22;;;;;;;3.60;1.00;;;22.60;99.90;;;;;;5066653;28;20053;-67